Time;durP1;ratioP1;P1;durP2;ratioP2;P2;SDS_P1;SDS_P2;PMS_P1;PMS_P2;Temp;Humidity;BMP_temperature;BMP_pressure;BME280_temperature;BME280_humidity;BME280_pressure;Samples;Min_cycle;Max_cycle;Signal;HPM_P1;HPM_P2
2022/04/22 00:02:25;;;;;;;6.63;3.10;;;;;;;14.98;69.17;98924.44;4939601;29;20181;-89
2022/04/22 00:04:50;;;;;;;5.60;2.60;;;;;;;14.92;69.08;98932.81;4940131;29;20182;-90
2022/04/22 00:07:16;;;;;;;6.23;3.50;;;;;;;15.03;68.76;98923.16;4939939;29;20200;-89
2022/04/22 00:09:41;;;;;;;7.50;3.07;;;;;;;15.10;68.38;98928.81;4939472;29;20272;-89
2022/04/22 00:12:08;;;;;;;9.10;3.37;;;;;;;15.13;68.13;98929.44;4939943;29;20173;-89
2022/04/22 00:14:34;;;;;;;5.37;3.20;;;;;;;15.14;67.97;98932.91;4939425;29;20535;-89
2022/04/22 00:17:00;;;;;;;5.70;3.77;;;;;;;15.16;67.93;98941.56;4938949;29;20657;-90
2022/04/22 00:19:26;;;;;;;5.53;3.20;;;;;;;15.16;67.99;98942.41;4939647;29;20178;-90
2022/04/22 00:21:53;;;;;;;5.80;3.20;;;;;;;15.16;68.07;98960.91;4939104;29;20547;-89
2022/04/22 00:24:19;;;;;;;6.30;3.17;;;;;;;15.19;68.33;98959.81;4938921;29;20224;-89
2022/04/22 00:26:45;;;;;;;4.37;2.83;;;;;;;15.25;67.76;98964.66;4939443;29;20180;-90
2022/04/22 00:29:11;;;;;;;5.67;3.23;;;;;;;15.26;67.38;98972.47;4955745;29;20184;-89
2022/04/22 00:31:37;;;;;;;7.97;3.90;;;;;;;15.24;67.12;98977.00;4938769;29;20205;-89
2022/04/22 00:34:02;;;;;;;5.53;3.00;;;;;;;15.23;67.75;98975.31;4938704;29;20225;-90
2022/04/22 00:36:28;;;;;;;13.30;4.27;;;;;;;15.20;67.89;98972.91;4938836;29;20188;-90
2022/04/22 00:38:53;;;;;;;5.83;3.13;;;;;;;15.31;67.11;98974.75;4955673;29;20189;-90
2022/04/22 00:41:19;;;;;;;7.17;3.37;;;;;;;15.34;66.94;98969.25;4938698;29;20629;-90
2022/04/22 00:43:50;;;;;;;7.73;3.40;;;;;;;15.33;66.95;98968.38;4955394;28;20190;-90
2022/04/22 00:46:16;;;;;;;5.70;2.87;;;;;;;15.33;66.84;98968.38;4938584;29;20177;-89
2022/04/22 00:48:42;;;;;;;11.27;4.33;;;;;;;15.31;67.04;98970.31;4938520;29;20225;-90
2022/04/22 00:51:09;;;;;;;9.63;4.60;;;;;;;15.29;66.78;98961.66;4938760;29;20221;-90
2022/04/22 00:53:35;;;;;;;12.47;4.37;;;;;;;15.23;67.28;98950.72;4955449;29;20205;-90
2022/04/22 00:56:06;;;;;;;7.90;3.90;;;;;;;15.13;67.59;98947.91;4955319;29;20183;-90
2022/04/22 00:58:35;;;;;;;7.97;4.00;;;;;;;15.13;67.84;98934.72;4955591;29;20175;-90
2022/04/22 01:01:01;;;;;;;7.37;4.40;;;;;;;15.12;67.82;98919.81;4938592;29;20221;-89
2022/04/22 01:03:26;;;;;;;6.03;3.23;;;;;;;15.18;68.02;98900.91;4955778;29;20214;-90
2022/04/22 01:11:22;;;;;;;7.10;4.10;;;;;;;15.02;68.69;98876.59;4955651;29;20177;-89
2022/04/22 01:13:47;;;;;;;5.57;3.37;;;;;;;14.96;68.82;98884.13;4938293;29;20212;-90
2022/04/22 01:16:13;;;;;;;6.47;4.10;;;;;;;14.98;68.96;98887.50;4938163;29;20273;-90
2022/04/22 01:18:38;;;;;;;9.07;3.87;;;;;;;15.00;69.47;98896.13;4955197;29;20181;-90
2022/04/22 01:21:04;;;;;;;7.67;4.13;;;;;;;15.06;69.04;98906.25;4938373;29;20209;-90
2022/04/22 01:23:29;;;;;;;9.90;3.83;;;;;;;15.00;68.91;98904.91;4938237;29;20172;-89
2022/04/22 01:25:56;;;;;;;7.40;4.07;;;;;;;14.97;69.08;98896.38;4955207;29;20178;-89
2022/04/22 01:28:23;;;;;;;7.43;3.70;;;;;;;15.05;69.08;98902.75;4938571;29;20178;-90
2022/04/22 01:30:55;;;;;;;9.27;3.80;;;;;;;14.99;68.96;98907.69;4937889;29;20188;-89
2022/04/22 01:33:20;;;;;;;9.47;4.60;;;;;;;14.89;69.31;98919.84;4938465;29;20656;-89
2022/04/22 01:35:46;;;;;;;7.97;4.10;;;;;;;14.86;69.69;98910.34;4938360;29;20181;-90
2022/04/22 01:38:11;;;;;;;7.03;4.10;;;;;;;14.98;69.22;98909.47;4941345;29;20180;-90
2022/04/22 01:40:37;;;;;;;9.20;4.50;;;;;;;14.95;68.79;98904.41;4958936;29;20177;-90
2022/04/22 01:43:04;;;;;;;7.17;3.50;;;;;;;15.00;69.36;98914.63;4942056;29;20209;-89
2022/04/22 01:45:30;;;;;;;5.97;3.33;;;;;;;15.02;69.17;98904.78;4942166;29;20181;-90
2022/04/22 01:47:56;;;;;;;6.23;3.00;;;;;;;15.04;68.62;98902.91;4941781;29;20620;-89
2022/04/22 01:50:22;;;;;;;6.23;3.30;;;;;;;15.04;68.57;98914.25;4941752;29;20679;-90
2022/04/22 01:52:47;;;;;;;6.10;3.60;;;;;;;14.96;69.05;98910.53;4941886;29;20200;-90
2022/04/22 01:55:13;;;;;;;9.70;3.67;;;;;;;14.92;69.00;98904.63;4941966;29;20174;-89
2022/04/22 01:57:38;;;;;;;6.50;3.00;;;;;;;14.98;68.59;98908.63;4941556;29;20379;-89
2022/04/22 02:00:04;;;;;;;6.77;3.70;;;;;;;15.01;68.51;98918.94;4942613;29;20237;-90
2022/04/22 02:02:30;;;;;;;7.03;3.67;;;;;;;14.93;69.00;98935.34;4941535;29;20182;-89
2022/04/22 02:04:55;;;;;;;5.07;2.87;;;;;;;14.81;69.44;98949.44;4941577;29;20248;-90
2022/04/22 02:07:21;;;;;;;7.00;3.73;;;;;;;14.75;69.87;98956.00;4958439;29;20174;-90
2022/04/22 02:09:46;;;;;;;6.07;2.77;;;;;;;14.72;70.11;98950.09;4941826;29;20181;-90
2022/04/22 02:12:12;;;;;;;7.20;2.93;;;;;;;14.78;69.78;98939.94;4958764;29;20199;-90
2022/04/22 02:14:38;;;;;;;6.63;2.83;;;;;;;14.80;69.75;98939.00;4942270;29;20189;-89
2022/04/22 02:17:04;;;;;;;5.07;3.10;;;;;;;14.73;69.95;98934.16;4958220;29;20632;-89
2022/04/22 02:19:30;;;;;;;4.73;2.47;;;;;;;14.70;70.20;98938.84;4958652;29;20260;-89
2022/04/22 02:21:56;;;;;;;5.30;2.87;;;;;;;14.69;70.34;98930.06;4941331;29;20647;-89
2022/04/22 02:24:22;;;;;;;4.93;2.63;;;;;;;14.83;69.47;98907.97;4941494;29;20596;-90
2022/04/22 02:29:31;;;;;;;4.03;2.40;;;;;;;14.75;69.48;98912.97;4958826;29;20235;-89
2022/04/22 02:31:57;;;;;;;4.93;3.33;;;;;;;14.73;69.62;98893.72;4941020;29;20181;-90
2022/04/22 02:34:23;;;;;;;4.80;2.60;;;;;;;14.76;69.72;98890.88;4957813;29;20196;-89
2022/04/22 02:36:50;;;;;;;8.00;2.80;;;;;;;14.72;69.64;98908.75;4940885;29;20187;-90
2022/04/22 02:39:17;;;;;;;4.53;2.43;;;;;;;14.73;69.43;98925.41;4940859;29;20173;-90
2022/04/22 02:47:11;;;;;;;7.87;3.13;;;;;;;14.67;70.13;98907.38;4957670;29;20530;-89
2022/04/22 02:49:37;;;;;;;4.90;2.77;;;;;;;14.74;69.89;98900.69;4956456;28;20173;-89
2022/04/22 02:52:03;;;;;;;4.90;2.60;;;;;;;14.77;70.08;98896.06;4957988;29;20181;-89
2022/04/22 02:54:33;;;;;;;4.97;2.77;;;;;;;14.82;69.74;98898.34;4940462;29;20217;-90
2022/04/22 02:56:59;;;;;;;4.63;2.80;;;;;;;14.82;69.53;98871.97;4940544;29;20177;-90
2022/04/22 02:59:24;;;;;;;6.73;3.07;;;;;;;14.81;69.66;98869.41;4941092;29;20549;-90
2022/04/22 03:01:50;;;;;;;3.43;2.03;;;;;;;14.74;69.91;98876.97;4957427;29;20184;-90
2022/04/22 03:04:16;;;;;;;6.37;3.17;;;;;;;14.69;70.56;98871.19;4940426;29;20328;-89
2022/04/22 03:06:41;;;;;;;4.00;2.03;;;;;;;14.73;70.66;98877.91;4940670;29;20607;-89
2022/04/22 03:09:07;;;;;;;4.70;2.67;;;;;;;14.77;70.02;98879.38;4940334;29;20268;-90
2022/04/22 03:11:34;;;;;;;4.60;2.10;;;;;;;14.76;69.85;98890.88;4957514;29;20589;-90
2022/04/22 03:14:00;;;;;;;5.63;3.03;;;;;;;14.78;69.75;98891.59;4957075;29;20271;-90
2022/04/22 03:16:27;;;;;;;8.27;2.97;;;;;;;14.80;69.66;98884.44;4940202;29;20272;-90
2022/04/22 03:18:53;;;;;;;5.40;3.10;;;;;;;14.80;69.15;98884.44;4940452;29;20183;-90
2022/04/22 03:21:18;;;;;;;4.83;2.53;;;;;;;14.71;69.75;98885.94;4940653;29;20524;-90
2022/04/22 03:23:44;;;;;;;6.80;3.47;;;;;;;14.71;69.85;98878.03;4957305;29;20184;-89
2022/04/22 03:26:10;;;;;;;7.13;3.50;;;;;;;14.71;69.78;98883.31;4957283;29;20188;-90
2022/04/22 03:28:35;;;;;;;7.27;3.73;;;;;;;14.64;69.72;98892.63;4940211;29;20193;-89
2022/04/22 03:31:01;;;;;;;7.17;3.17;;;;;;;14.65;70.14;98896.09;4939937;29;20589;-90
2022/04/22 03:33:26;;;;;;;6.53;2.77;;;;;;;14.67;70.45;98895.03;4941022;29;20217;-90
2022/04/22 03:35:52;;;;;;;5.40;3.20;;;;;;;14.76;69.87;98889.09;4940222;29;20180;-90
2022/04/22 03:38:22;;;;;;;6.37;3.13;;;;;;;14.77;70.22;98895.22;4940147;29;20367;-90
2022/04/22 03:40:48;;;;;;;11.53;3.70;;;;;;;14.76;69.88;98901.44;4939709;29;20188;-90
2022/04/22 03:43:14;;;;;;;6.57;3.10;;;;;;;14.80;69.57;98889.72;4939637;29;20185;-90
2022/04/22 03:45:40;;;;;;;6.73;3.17;;;;;;;14.80;69.77;98891.50;4956873;29;20533;-90
2022/04/22 03:48:07;;;;;;;5.93;3.27;;;;;;;14.67;69.87;98902.13;4939943;29;20173;-89
2022/04/22 03:50:33;;;;;;;9.43;3.17;;;;;;;14.56;70.47;98913.44;4939555;29;20708;-90
2022/04/22 03:52:58;;;;;;;7.07;3.77;;;;;;;14.56;70.95;98918.72;4939830;29;20204;-90
2022/04/22 03:55:24;;;;;;;5.30;2.83;;;;;;;14.55;70.81;98919.66;4939696;29;20193;-90
2022/04/22 04:00:33;;;;;;;9.70;3.70;;;;;;;14.46;71.12;98916.84;4956643;28;20230;-90
2022/04/22 04:02:59;;;;;;;9.50;4.20;;;;;;;14.48;71.48;98914.94;4939492;29;20268;-90
2022/04/22 04:05:24;;;;;;;6.77;3.33;;;;;;;14.55;71.54;98905.63;4956592;29;20204;-90
2022/04/22 04:07:49;;;;;;;9.40;3.67;;;;;;;14.56;71.47;98902.03;4939529;29;20184;-90
2022/04/22 04:15:58;;;;;;;8.90;3.80;;;;;;;14.67;71.49;98931.13;4956689;29;20264;-90
2022/04/22 04:18:34;;;;;;;6.70;3.73;;;;;;;14.71;71.15;98933.44;4971286;28;20262;-90
2022/04/22 04:23:46;;;;;;;8.83;4.63;;;;;;;14.87;70.35;98921.75;4956571;29;20172;-89
2022/04/22 04:26:12;;;;;;;8.03;4.13;;;;;;;14.86;70.40;98920.91;4939223;29;20173;-90
2022/04/22 04:28:39;;;;;;;7.83;4.23;;;;;;;14.83;70.50;98918.50;4938942;29;20181;-90
2022/04/22 04:31:06;;;;;;;7.33;4.33;;;;;;;14.90;70.22;98916.25;4939953;29;20180;-90
2022/04/22 04:33:32;;;;;;;10.87;4.83;;;;;;;14.93;70.12;98911.59;4939610;29;20547;-90
2022/04/22 04:35:58;;;;;;;10.47;4.60;;;;;;;14.85;70.70;98913.97;4938856;29;20192;-90
2022/04/22 04:38:27;;;;;;;9.00;4.10;;;;;;;14.91;70.48;98913.50;4938998;29;20192;-90
2022/04/22 04:40:53;;;;;;;6.77;4.20;;;;;;;14.93;70.67;98927.44;4956168;29;20203;-90
2022/04/22 04:43:20;;;;;;;10.30;4.93;;;;;;;14.93;70.73;98921.31;4938702;29;20207;-90
2022/04/22 04:45:46;;;;;;;8.47;4.87;;;;;;;14.97;70.78;98920.97;4938778;29;20668;-90
2022/04/22 04:48:12;;;;;;;11.03;4.37;;;;;;;14.96;71.00;98927.22;4938991;29;20640;-90
2022/04/22 04:50:40;;;;;;;11.30;5.47;;;;;;;14.94;70.91;98931.75;4938829;29;20175;-90
2022/04/22 04:53:06;;;;;;;9.30;5.30;;;;;;;14.94;71.04;98929.09;4938637;29;20203;-90
2022/04/22 04:55:31;;;;;;;10.80;4.23;;;;;;;15.01;71.10;98925.06;4938758;29;20248;-90
2022/04/22 04:57:57;;;;;;;11.17;4.97;;;;;;;15.01;71.03;98927.72;4939064;29;20173;-90
2022/04/22 05:00:22;;;;;;;9.77;4.93;;;;;;;15.10;70.64;98918.25;4938845;29;20529;-90
2022/04/22 05:02:48;;;;;;;10.93;5.33;;;;;;;15.16;70.20;98923.09;4955770;29;20173;-90
2022/04/22 05:05:14;;;;;;;8.73;4.57;;;;;;;15.26;70.22;98924.94;4938601;29;20268;-90
2022/04/22 05:07:49;;;;;;;17.37;4.27;;;;;;;15.25;70.22;98917.13;4970721;28;20182;-90
2022/04/22 05:10:18;;;;;;;12.73;4.57;;;;;;;15.22;70.56;98912.91;4938220;29;20181;-90
2022/04/22 05:12:48;;;;;;;9.10;4.30;;;;;;;15.14;70.56;98899.44;4937625;29;20204;-91
2022/04/22 05:15:14;;;;;;;9.27;4.50;;;;;;;14.98;71.50;98901.53;4970570;28;20186;-90
2022/04/22 05:17:41;;;;;;;8.00;3.73;;;;;;;14.91;72.21;98886.28;4938187;29;20209;-91
2022/04/22 05:20:08;;;;;;;14.10;4.77;;;;;;;14.85;72.82;98890.22;4938148;29;20202;-90
2022/04/22 05:22:34;;;;;;;12.23;4.17;;;;;;;14.73;73.07;98896.38;4938199;29;20617;-90
2022/04/22 05:24:59;;;;;;;9.43;4.63;;;;;;;14.62;72.75;98888.41;4955102;29;20200;-91
2022/04/22 05:27:25;;;;;;;10.73;5.17;;;;;;;14.59;72.36;98886.00;4955287;29;20559;-92
2022/04/22 05:32:37;;;;;;;11.10;5.13;;;;;;;14.67;71.76;98899.47;4955262;29;20602;-91
2022/04/22 05:35:07;;;;;;;11.63;4.93;;;;;;;14.65;71.43;98917.19;4955256;29;20173;-91
2022/04/22 05:37:56;;;;;;;8.13;4.67;;;;;;;14.80;70.83;98915.25;4938169;29;20186;-91
2022/04/22 05:40:48;;;;;;;12.00;5.33;;;;;;;14.94;70.32;98915.91;4938050;29;20186;-90
2022/04/22 05:43:13;;;;;;;10.37;5.20;;;;;;;15.04;69.55;98922.19;4937992;29;20239;-91
2022/04/22 05:45:39;;;;;;;8.27;4.80;;;;;;;14.80;69.74;98910.81;4938039;29;20595;-91
2022/04/22 05:48:05;;;;;;;10.90;5.03;;;;;;;14.46;71.61;98919.50;4954980;29;20260;-90
2022/04/22 05:50:31;;;;;;;8.90;4.63;;;;;;;14.52;71.79;98924.31;4954947;29;20181;-91
2022/04/22 05:52:57;;;;;;;7.83;5.00;;;;;;;14.64;71.44;98929.56;4954775;29;20209;-91
2022/04/22 05:55:25;;;;;;;8.83;4.50;;;;;;;14.65;71.20;98933.88;4938015;29;20276;-90
2022/04/22 05:57:53;;;;;;;9.87;5.20;;;;;;;14.80;70.95;98941.63;4938144;29;20629;-90
2022/04/22 06:00:23;;;;;;;8.87;5.03;;;;;;;14.75;71.16;98941.97;4955033;29;20211;-90
2022/04/22 06:02:48;;;;;;;6.30;3.97;;;;;;;14.87;70.82;98941.06;4937996;29;20181;-91
2022/04/22 06:05:16;;;;;;;11.50;4.10;;;;;;;14.95;70.57;98938.72;4970083;28;20173;-91
2022/04/22 06:07:43;;;;;;;5.27;3.27;;;;;;;14.93;70.46;98931.88;4937883;29;20185;-91
2022/04/22 06:12:55;;;;;;;7.00;3.43;;;;;;;15.09;69.96;98948.25;4955529;29;20285;-90
2022/04/22 06:15:21;;;;;;;7.97;3.93;;;;;;;15.08;69.42;98947.41;4955101;29;20264;-91
2022/04/22 06:17:47;;;;;;;6.77;3.83;;;;;;;14.94;70.30;98939.66;4937818;29;20264;-91
2022/04/22 06:20:13;;;;;;;7.37;4.03;;;;;;;14.82;70.88;98939.72;4954972;29;20182;-91
2022/04/22 06:22:39;;;;;;;6.77;3.40;;;;;;;14.87;70.16;98948.13;4938389;28;20533;-90
2022/04/22 06:25:05;;;;;;;8.90;3.57;;;;;;;14.84;70.70;98940.44;4958208;29;20204;-91
2022/04/22 06:27:38;;;;;;;10.33;4.63;;;;;;;14.92;70.16;98948.66;4941214;29;20186;-91
2022/04/22 06:30:16;;;;;;;12.50;6.07;;;;;;;14.90;70.24;98948.78;4958113;29;20640;-91
2022/04/22 06:32:46;;;;;;;18.40;7.80;;;;;;;15.01;70.05;98954.13;4958318;29;20246;-91
2022/04/22 06:35:13;;;;;;;9.70;5.17;;;;;;;15.12;69.89;98954.13;4941096;29;20639;-91
2022/04/22 06:37:47;;;;;;;8.67;4.37;;;;;;;15.23;69.21;98961.28;4957953;29;20179;-91
2022/04/22 06:45:47;;;;;;;14.50;5.47;;;;;;;15.27;69.25;98963.59;4958072;29;20170;-91
2022/04/22 06:48:14;;;;;;;9.93;5.03;;;;;;;15.28;69.41;98948.56;4958033;29;20185;-91
2022/04/22 06:50:41;;;;;;;5.83;3.47;;;;;;;15.23;69.55;98953.34;4958006;29;20183;-91
2022/04/22 06:53:08;;;;;;;7.47;4.40;;;;;;;15.16;69.39;98958.25;4941046;29;20670;-91
2022/04/22 06:55:34;;;;;;;9.23;4.80;;;;;;;15.26;69.29;98959.25;4957889;29;20182;-90
2022/04/22 06:58:01;;;;;;;10.20;4.03;;;;;;;15.31;69.09;98962.38;4957883;29;20169;-90
2022/04/22 07:00:27;;;;;;;11.83;4.90;;;;;;;15.39;69.10;98961.81;4940665;29;20736;-91
2022/04/22 07:02:52;;;;;;;9.63;4.30;;;;;;;15.46;68.85;98962.25;4940952;29;20183;-90
2022/04/22 07:05:18;;;;;;;6.47;3.63;;;;;;;15.53;68.24;98958.19;4957651;29;20194;-91
2022/04/22 07:07:44;;;;;;;6.83;3.93;;;;;;;15.54;68.75;98949.31;4940538;29;20183;-91
2022/04/22 07:10:10;;;;;;;8.17;4.07;;;;;;;15.19;69.67;98939.56;4957743;29;20190;-91
2022/04/22 07:12:36;;;;;;;7.97;3.83;;;;;;;14.96;70.95;98940.41;4940412;29;20656;-92
2022/04/22 07:15:06;;;;;;;14.70;6.13;;;;;;;15.08;70.99;98946.56;4957363;29;20201;-91
2022/04/22 07:17:37;;;;;;;8.03;4.40;;;;;;;15.30;70.81;98944.03;4957894;29;20168;-91
2022/04/22 07:20:06;;;;;;;8.93;3.80;;;;;;;15.38;70.72;98941.66;4972316;28;20183;-91
2022/04/22 07:22:32;;;;;;;8.63;4.07;;;;;;;15.32;71.52;98932.41;4940644;29;20647;-92
2022/04/22 07:24:58;;;;;;;7.67;4.20;;;;;;;15.18;71.10;98927.28;4957276;29;20210;-91
2022/04/22 07:27:27;;;;;;;10.13;3.60;;;;;;;15.14;71.39;98925.84;4957627;29;20186;-91
2022/04/22 07:29:53;;;;;;;12.43;4.47;;;;;;;15.36;70.32;98925.06;4940379;29;20191;-92
2022/04/22 07:32:19;;;;;;;7.03;3.60;;;;;;;15.50;69.89;98916.13;4940561;29;20265;-92
2022/04/22 07:34:45;;;;;;;7.43;3.23;;;;;;;15.44;69.65;98912.13;4939736;29;20262;-92
2022/04/22 07:37:11;;;;;;;11.53;4.80;;;;;;;15.46;70.13;98883.00;4940144;29;20214;-93
2022/04/22 07:39:39;;;;;;;14.43;6.17;;;;;;;15.37;70.19;98876.59;4972326;28;20183;-94
2022/04/22 07:42:07;;;;;;;12.03;5.13;;;;;;;15.37;70.61;98873.94;4940342;29;20651;-91
2022/04/22 07:47:20;;;;;;;13.70;5.27;;;;;;;15.39;70.60;98870.22;4957625;29;20612;-92
2022/04/22 07:49:46;;;;;;;14.33;6.30;;;;;;;15.32;70.56;98878.72;4956997;29;20192;-93
2022/04/22 07:52:12;;;;;;;15.00;5.97;;;;;;;15.46;70.59;98883.81;4940054;29;20238;-92
2022/04/22 07:54:37;;;;;;;10.50;4.80;;;;;;;15.64;70.41;98871.03;4956818;29;20207;-93
2022/04/22 07:57:03;;;;;;;15.00;6.33;;;;;;;15.53;70.77;98868.34;4972103;28;20191;-94
2022/04/22 07:59:30;;;;;;;7.77;3.93;;;;;;;15.37;71.63;98863.38;4940422;29;20538;-92
2022/04/22 08:01:58;;;;;;;7.03;3.97;;;;;;;15.39;71.76;98858.81;4940349;29;20183;-91
2022/04/22 08:04:25;;;;;;;7.00;3.37;;;;;;;15.72;70.61;98832.44;4956866;29;20183;-95
2022/04/22 08:06:51;;;;;;;9.33;4.33;;;;;;;15.95;69.23;98820.94;4939809;29;20177;-95
2022/04/22 08:09:17;;;;;;;7.77;3.97;;;;;;;15.78;69.37;98804.72;4939796;29;20241;-88
2022/04/22 08:11:45;;;;;;;8.23;3.97;;;;;;;15.80;69.82;98821.31;4956725;29;20265;-93
2022/04/22 08:14:13;;;;;;;12.30;3.83;;;;;;;16.01;70.36;98816.94;4939506;29;20311;-91
2022/04/22 08:16:39;;;;;;;8.97;3.10;;;;;;;15.92;68.28;98812.41;4939652;29;20181;-92
2022/04/22 08:19:08;;;;;;;15.67;4.27;;;;;;;16.08;69.45;98819.94;4939466;29;20169;-93
2022/04/22 08:21:53;;;;;;;6.93;3.33;;;;;;;16.36;70.12;98820.25;4939553;29;20644;-95
2022/04/22 08:24:19;;;;;;;11.27;3.03;;;;;;;16.55;67.41;98801.94;4939208;29;20550;-92
2022/04/22 08:30:04;;;;;;;6.13;2.97;;;;;;;16.42;69.36;98813.63;4956301;28;20279;-93
2022/04/22 08:33:33;;;;;;;5.27;2.67;;;;;;;16.70;67.16;98815.72;4956554;29;20189;-94
2022/04/22 08:36:33;;;;;;;5.70;3.10;;;;;;;16.75;67.55;98821.47;4879576;29;20170;-93
2022/04/22 08:39:12;;;;;;;;;;;;;;;;;;;;;
2022/04/22 08:41:43;;;;;;;5.13;3.23;;;;;;;17.24;67.07;98820.00;4878728;29;20192;-92
2022/04/22 08:50:35;;;;;;;8.87;2.67;;;;;;;17.94;63.89;98836.03;4935828;29;20265;-94
2022/04/22 08:53:28;;;;;;;3.77;2.13;;;;;;;18.15;60.93;98831.50;4919137;29;20208;-95
2022/04/22 08:55:57;;;;;;;7.10;2.67;;;;;;;18.20;61.18;98831.91;4935780;29;20261;-90
2022/04/22 08:58:25;;;;;;;6.90;2.67;;;;;;;18.50;59.94;98818.59;4920835;29;20211;-93
2022/04/22 09:01:22;;;;;;;;;;;;;;;;;;;;;
2022/04/22 09:04:29;;;;;;;;;;;;;;;;;;;;;
2022/04/22 09:07:37;;;;;;;4.13;2.50;;;;;;;19.25;58.57;98807.25;4936978;29;20165;-94
2022/04/22 09:10:02;;;;;;;9.33;2.60;;;;;;;19.35;55.22;98797.44;4878446;29;20286;-92
2022/04/22 09:12:28;;;;;;;4.70;2.03;;;;;;;19.43;56.72;98792.28;4878355;29;20195;-93
2022/04/22 09:14:58;;;;;;;4.03;2.37;;;;;;;19.39;53.97;98793.56;4896110;29;20634;-89
2022/04/22 09:17:29;;;;;;;4.80;2.57;;;;;;;19.57;54.76;98786.50;4936423;29;20169;-93
2022/04/22 09:19:58;;;;;;;3.67;2.27;;;;;;;19.54;55.38;98777.00;4936665;29;20268;-92
2022/04/22 09:22:34;;;;;;;5.47;2.63;;;;;;;19.67;54.60;98771.34;4919228;29;20268;-93
2022/04/22 09:25:08;;;;;;;4.67;2.13;;;;;;;19.82;53.29;98775.19;4936684;29;20184;-94
2022/04/22 09:27:45;;;;;;;4.17;2.13;;;;;;;19.91;52.40;98776.97;4936064;29;20605;-93
2022/04/22 09:30:14;;;;;;;2.63;1.73;;;;;;;19.96;53.21;98771.19;4919559;29;20243;-94
2022/04/22 09:33:01;;;;;;;6.33;2.60;;;;;;;19.60;54.19;98775.56;4919010;29;20192;-93
2022/04/22 09:42:38;;;;;;;2.87;1.40;;;;;;;19.65;53.54;98764.50;4936199;29;20176;-93
2022/04/22 09:43:59;;;;;;;3.30;1.67;;;;;;;20.58;51.38;98754.41;4944456;28;20727;-90
2022/04/22 09:46:30;;;;;;;4.50;2.23;;;;;;;20.54;51.38;98756.56;4955134;29;20189;-90
2022/04/22 09:48:57;;;;;;;3.53;2.17;;;;;;;20.38;51.80;98756.41;4937977;29;20739;-89
2022/04/22 09:51:27;;;;;;;3.37;2.10;;;;;;;20.37;52.41;98751.22;4970003;28;20189;-91
2022/04/22 09:54:05;;;;;;;7.57;1.83;;;;;;;20.60;53.58;98752.41;4954994;29;20517;-91
2022/04/22 09:56:33;;;;;;;5.83;1.87;;;;;;;20.91;52.82;98751.00;4955313;29;20177;-92
2022/04/22 09:58:59;;;;;;;4.93;1.53;;;;;;;21.32;53.11;98742.34;4957643;28;20253;-90
2022/04/22 10:01:25;;;;;;;3.90;1.67;;;;;;;21.59;52.23;98727.16;4958565;29;20185;-91
2022/04/22 10:03:51;;;;;;;5.57;2.07;;;;;;;21.66;50.46;98721.03;4958789;29;20184;-91
2022/04/22 10:06:18;;;;;;;2.73;1.10;;;;;;;21.97;47.17;98718.66;4941787;29;20173;-89
2022/04/22 10:08:46;;;;;;;4.03;1.20;;;;;;;21.97;46.08;98707.97;4941425;29;20192;-89
2022/04/22 10:11:15;;;;;;;2.40;1.07;;;;;;;22.30;43.25;98695.56;4958293;29;20185;-91
2022/04/22 10:13:46;;;;;;;2.33;1.00;;;;;;;22.49;43.39;98687.19;4958240;29;20197;-89
2022/04/22 10:16:14;;;;;;;10.40;1.50;;;;;;;22.74;43.66;98696.09;4958506;29;20177;-91
2022/04/22 10:18:42;;;;;;;3.43;1.00;;;;;;;23.07;43.93;98705.72;4958549;29;20246;-91
2022/04/22 10:21:09;;;;;;;4.17;1.23;;;;;;;23.09;43.65;98698.38;4958208;29;20252;-90
2022/04/22 10:23:36;;;;;;;6.93;1.37;;;;;;;23.05;43.39;98689.03;4941278;29;20177;-92
2022/04/22 10:26:02;;;;;;;2.40;1.40;;;;;;;23.14;44.22;98677.31;4958087;29;20179;-89
2022/04/22 10:28:39;;;;;;;3.43;1.27;;;;;;;23.51;43.96;98674.88;4958685;29;20176;-91
2022/04/22 10:31:08;;;;;;;2.50;1.10;;;;;;;23.60;43.00;98673.00;4958352;29;20157;-90
2022/04/22 10:34:03;;;;;;;4.27;1.20;;;;;;;23.44;43.07;98665.88;4939841;29;20303;-93
2022/04/22 10:36:34;;;;;;;4.63;1.30;;;;;;;23.35;42.60;98674.91;4956836;29;20197;-92
2022/04/22 10:39:05;;;;;;;2.33;1.03;;;;;;;23.54;41.86;98677.22;4940678;29;20185;-90
2022/04/22 10:41:43;;;;;;;2.27;1.30;;;;;;;23.84;41.63;98671.06;4940597;29;20192;-91
2022/04/22 10:49:45;;;;;;;4.50;0.83;;;;;;;23.63;39.27;98668.16;4952599;28;20254;-87
2022/04/22 10:52:17;;;;;;;1.90;1.07;;;;;;;24.05;39.86;98661.56;4961020;28;20187;-91
2022/04/22 10:54:55;;;;;;;1.80;1.00;;;;;;;24.01;41.15;98654.88;4977021;28;20200;-89
2022/04/22 10:57:23;;;;;;;2.17;0.93;;;;;;;24.12;39.20;98646.47;4977009;28;20172;-90
2022/04/22 11:00:07;;;;;;;7.30;1.30;;;;;;;24.10;40.74;98646.66;4976771;28;20599;-92
2022/04/22 11:02:37;;;;;;;2.60;1.20;;;;;;;24.45;39.85;98654.09;4972360;28;20243;-92
2022/04/22 11:05:21;;;;;;;1.20;0.70;;;;;;;24.12;38.93;98652.69;4940619;29;20514;-91
2022/04/22 11:07:58;;;;;;;3.17;0.87;;;;;;;24.06;39.34;98647.97;4957206;29;20184;-89
2022/04/22 11:10:48;;;;;;;4.10;1.10;;;;;;;23.94;38.01;98648.56;4956707;28;20513;-88
2022/04/22 11:13:38;;;;;;;2.23;0.80;;;;;;;24.19;38.27;98634.03;4960000;28;20205;-91
2022/04/22 11:16:22;;;;;;;5.23;1.50;;;;;;;24.67;38.03;98630.97;4933754;29;20665;-89
2022/04/22 11:19:26;;;;;;;6.30;1.10;;;;;;;24.81;37.27;98624.00;4946576;29;20658;-90
2022/04/22 11:21:55;;;;;;;0.53;0.40;;;;;;;24.83;36.69;98616.59;4879207;29;20195;-89
2022/04/22 11:24:29;;;;;;;1.23;0.70;;;;;;;24.78;36.00;98616.28;4845175;29;20188;-88
2022/04/22 11:27:37;;;;;;;1.00;0.47;;;;;;;24.97;36.05;98599.69;4900507;29;20272;-89
2022/04/22 11:30:03;;;;;;;1.55;1.00;;;;;;;25.51;37.13;98603.75;4936537;29;20700;-89
2022/04/22 11:32:32;;;;;;;1.23;0.63;;;;;;;25.58;35.91;98607.34;4936541;29;20178;-89
2022/04/22 11:35:21;;;;;;;2.03;0.52;;;;;;;25.50;34.62;98595.88;4919952;29;20173;-89
2022/04/22 11:38:07;;;;;;;1.75;0.93;;;;;;;25.58;35.69;98593.91;4936428;29;20162;-89
2022/04/22 11:40:48;;;;;;;;;;;;;;;;;;;;;
2022/04/22 11:43:28;;;;;;;2.92;0.93;;;;;;;26.22;34.96;98559.91;4938015;29;20204;-91
2022/04/22 11:45:54;;;;;;;5.28;1.20;;;;;;;26.31;33.15;98557.88;4920710;29;20201;-90
2022/04/22 11:48:21;;;;;;;1.40;0.57;;;;;;;26.54;33.09;98558.50;4937382;29;20208;-92
2022/04/22 11:50:50;;;;;;;4.32;0.80;;;;;;;26.55;34.32;98556.63;4936464;29;20193;-94
2022/04/22 11:53:32;;;;;;;1.55;0.65;;;;;;;26.92;33.96;98561.66;4937693;29;20260;-90
2022/04/22 11:56:00;;;;;;;2.75;0.75;;;;;;;27.06;32.53;98539.19;4937898;29;20228;-91
2022/04/22 11:58:27;;;;;;;1.23;0.60;;;;;;;27.12;33.30;98538.38;4936386;29;20181;-93
2022/04/22 12:06:22;;;;;;;1.77;0.75;;;;;;;27.37;31.18;98534.16;4937491;29;20282;-90
2022/04/22 12:09:06;;;;;;;1.77;0.80;;;;;;;27.38;32.41;98535.00;4936659;29;20586;-92
2022/04/22 12:11:45;;;;;;;2.25;0.60;;;;;;;27.09;31.57;98536.13;4936889;29;20228;-90
2022/04/22 12:14:23;;;;;;;1.10;0.40;;;;;;;27.34;30.63;98529.16;4936122;29;20209;-91
2022/04/22 12:17:08;;;;;;;0.88;0.50;;;;;;;27.46;31.40;98525.94;4920537;29;20189;-90
2022/04/22 12:19:43;;;;;;;2.45;0.90;;;;;;;27.68;30.49;98522.88;4936346;29;20194;-90
2022/04/22 12:22:09;;;;;;;2.90;0.77;;;;;;;27.77;29.51;98516.28;4936930;29;20180;-91
2022/04/22 12:24:35;;;;;;;2.25;0.82;;;;;;;27.74;29.86;98518.53;4920246;29;20169;-92
2022/04/22 12:27:22;;;;;;;1.27;0.52;;;;;;;27.93;30.29;98510.50;4920195;29;20182;-93
2022/04/22 12:30:14;;;;;;;3.90;0.60;;;;;;;27.83;28.14;98509.25;4937243;29;20244;-90
2022/04/22 12:32:43;;;;;;;2.70;0.60;;;;;;;28.15;28.33;98500.38;4935919;29;20178;-89
2022/04/22 12:35:18;;;;;;;1.15;0.35;;;;;;;28.11;27.50;98493.75;4936623;29;20173;-92
2022/04/22 12:38:04;;;;;;;;;;;;;;;;;;;;;
2022/04/22 12:40:47;;;;;;;3.63;0.68;;;;;;;28.35;26.11;98479.63;4936981;29;20173;-93
2022/04/22 12:43:45;;;;;;;3.83;0.40;;;;;;;28.30;27.25;98471.31;4936173;29;20193;-90
2022/04/22 12:52:08;;;;;;;2.13;0.90;;;;;;;28.14;25.95;98463.69;4937010;29;20173;-94
2022/04/22 12:52:29;;;;;;;0.95;0.45;;;;;;;28.10;25.80;98459.75;4936567;29;20649;-92
2022/04/22 12:55:04;;;;;;;3.63;0.60;;;;;;;28.10;25.84;98459.75;4919789;29;20217;-90
2022/04/22 12:57:33;;;;;;;0.85;0.52;;;;;;;27.98;25.67;98459.53;4936327;29;20672;-93
2022/04/22 12:59:58;;;;;;;3.63;0.95;;;;;;;27.79;26.38;98462.19;4936487;29;20241;-88
2022/04/22 13:02:34;;;;;;;8.25;0.90;;;;;;;27.89;26.06;98462.59;4936239;29;20665;-90